Charles W Clark — WCP7548 — position and weather

sailwx.info

Track history (hours):
 
Tides and Currents Weather Stations Pressure Air Temp Water Temp Dewpoint Dewpoint Depression Visibility Wind Speed Wind Dir Waves Ship Positions

Charles W Clark

Owner: BLESSEY ENTERPRISES INC, HARAHAN, LA. More information available from US FCC via Universal Licensing System and Coast Guard Vessel Documentation Center.

Last reported at 2018-Feb-22 18:33 UTC. Time now 2018-Feb-23 08:35 UTC.
Position N 29°43' W 095°01'.

Length 20 m.

Type: Towing. MMSI: 366933680.

Date/timePositionNaut miles runAvg speedWind from/ knotsBaromVisibWave heightAir tempDewpointWater temp
2018-Feb-22 18:33N 29°43' W 095°01'0 7.6
2018-Feb-22 18:30N 29°43' W 095°01'1 2.0
2018-Feb-22 17:58N 29°42' W 095°02'0 0.3
2018-Feb-22 17:30N 29°42' W 095°02'0 0.0
2018-Feb-22 16:56N 29°42' W 095°02'0 0.0
2018-Feb-22 16:27N 29°42' W 095°02'0 0.0
2018-Feb-22 15:45N 29°42' W 095°02'0 0.0
2018-Feb-22 15:29N 29°42' W 095°02'0 0.0
2018-Feb-22 15:00N 29°42' W 095°02'0 0.0
2018-Feb-22 14:25N 29°42' W 095°02'0 0.0
2018-Feb-22 13:55N 29°42' W 095°02'0 0.6
2018-Feb-22 13:30N 29°43' W 095°03'1 2.4
2018-Feb-22 13:00N 29°43' W 095°01'1 0.1
2018-Feb-22 01:25N 29°44' W 095°02'3 6.8
2018-Feb-22 00:59N 29°42' W 094°59'3 6.8
2018-Feb-22 00:29N 29°38' W 094°58'2 5.0
2018-Feb-22 00:00N 29°37' W 094°60'1 2.5
2018-Feb-21 23:29N 29°37' W 095°01'0 0.0
2018-Feb-21 23:00N 29°37' W 095°01'0 0.0
2018-Feb-21 22:27N 29°37' W 095°01'0 0.0
2018-Feb-21 22:01N 29°37' W 095°01'0 0.0
2018-Feb-21 14:35N 29°37' W 095°01'0 0.0
2018-Feb-21 14:30N 29°37' W 095°01'0 0.0
2018-Feb-21 13:57N 29°37' W 095°01'1 3.2
2018-Feb-21 13:30N 29°37' W 094°60'2 4.9
2018-Feb-21 13:00N 29°39' W 094°58'4 7.5
2018-Feb-21 12:26N 29°42' W 095°01'1 2.9
2018-Feb-21 12:00N 29°42' W 095°02'0 0.0
2018-Feb-21 11:29N 29°42' W 095°02'0 0.0
2018-Feb-21 11:00N 29°42' W 095°02'0 0.0
2018-Feb-21 10:24N 29°42' W 095°02'0 0.0
2018-Feb-21 10:01N 29°42' W 095°02'0 0.0
2018-Feb-21 09:30N 29°42' W 095°02'0 0.0
2018-Feb-21 09:00N 29°42' W 095°02'0 0.0
2018-Feb-21 08:31N 29°42' W 095°02'0 0.0
2018-Feb-21 07:59N 29°42' W 095°02'0 0.0
2018-Feb-21 07:29N 29°42' W 095°02'0 0.0
2018-Feb-21 07:01N 29°42' W 095°02'0 0.0
2018-Feb-21 06:30N 29°42' W 095°02'0 0.0
2018-Feb-21 06:00N 29°42' W 095°02'0 0.0
2018-Feb-21 05:29N 29°42' W 095°02'0 0.0
2018-Feb-21 04:59N 29°42' W 095°02'0 0.0
2018-Feb-21 04:30N 29°42' W 095°02'0 0.0
2018-Feb-21 04:00N 29°42' W 095°02'0 0.0
2018-Feb-21 03:26N 29°42' W 095°02'0 0.0
2018-Feb-21 02:59N 29°42' W 095°02'0 0.0
2018-Feb-21 02:29N 29°42' W 095°02'0 0.0
2018-Feb-21 02:00N 29°42' W 095°02'0 0.0
2018-Feb-21 01:30N 29°42' W 095°02'0 0.0
2018-Feb-21 01:00N 29°42' W 095°02'0 0.0
2018-Feb-21 00:28N 29°42' W 095°02'0 0.0
2018-Feb-21 00:01N 29°42' W 095°02'0 0.0
2018-Feb-20 23:31N 29°42' W 095°02'0 0.0
2018-Feb-20 23:00N 29°42' W 095°02'0 0.0
2018-Feb-20 22:31N 29°42' W 095°02'0 0.0
2018-Feb-20 22:00N 29°42' W 095°02'0 0.0
2018-Feb-20 21:30N 29°42' W 095°02'0 0.0
2018-Feb-20 21:00N 29°42' W 095°02'1 1.3
2018-Feb-20 20:20N 29°42' W 095°01'6 0.9
2018-Feb-20 14:04N 29°47' W 095°05'0 0.0
2018-Feb-20 14:00N 29°47' W 095°05'0 0.0
2018-Feb-20 13:31N 29°47' W 095°05'0 0.0
2018-Feb-20 08:17N 29°47' W 095°05'1 2.0
2018-Feb-20 07:52N 29°46' W 095°05'2 6.0
2018-Feb-20 07:30N 29°45' W 095°06'6 0.4
2018-Feb-19 15:34N 29°43' W 095°13'0 0.1
2018-Feb-19 12:46N 29°43' W 095°13'1 0.1
2018-Feb-19 08:38N 29°43' W 095°13'0 0.0
2018-Feb-19 08:30N 29°43' W 095°13'9 0.5
2018-Feb-18 16:32N 29°47' W 095°05'0 0.1
2018-Feb-18 16:28N 29°47' W 095°05'0 0.0
2018-Feb-18 10:58N 29°47' W 095°05'1 0.1
2018-Feb-17 20:14N 29°46' W 095°05'1 0.4
2018-Feb-17 17:43N 29°45' W 095°06'2 0.2
2018-Feb-17 06:29N 29°47' W 095°05'0 0.2
2018-Feb-17 05:57N 29°47' W 095°05'5 0.9
2018-Feb-17 00:21N 29°43' W 095°01'3 7.7
2018-Feb-17 00:00N 29°41' W 094°59'4 8.4
2018-Feb-16 23:30N 29°37' W 094°57'4 7.0
2018-Feb-16 23:00N 29°37' W 095°01'0 0.1
2018-Feb-16 22:30N 29°37' W 095°01'0 0.0
2018-Feb-16 22:00N 29°37' W 095°01'0 0.0
2018-Feb-16 21:30N 29°37' W 095°01'0 0.0
2018-Feb-16 21:00N 29°37' W 095°01'0 0.0
2018-Feb-16 20:29N 29°37' W 095°01'0 0.0
2018-Feb-16 20:00N 29°37' W 095°01'0 0.0
2018-Feb-16 19:30N 29°37' W 095°01'0 0.0
2018-Feb-16 19:00N 29°37' W 095°01'0 0.0
2018-Feb-16 18:30N 29°37' W 095°01'0 0.0
2018-Feb-16 18:00N 29°37' W 095°01'0 0.0
2018-Feb-16 17:30N 29°37' W 095°01'0 0.0
2018-Feb-16 17:00N 29°37' W 095°01'0 0.0
2018-Feb-16 16:30N 29°37' W 095°01'0 0.0
2018-Feb-16 16:00N 29°37' W 095°01'0 0.0
2018-Feb-16 15:30N 29°37' W 095°01'0 0.0
2018-Feb-16 15:00N 29°37' W 095°01'0 0.0
2018-Feb-16 14:30N 29°37' W 095°01'0 0.0
2018-Feb-16 14:00N 29°37' W 095°01'0 0.0
2018-Feb-16 13:30N 29°37' W 095°01'0 0.0
2018-Feb-16 13:00N 29°37' W 095°01'0 0.0
2018-Feb-16 12:26N 29°37' W 095°01'0 0.0
2018-Feb-16 12:00N 29°37' W 095°01'0 0.0
2018-Feb-16 11:28N 29°37' W 095°01'2 3.7
2018-Feb-16 11:00N 29°37' W 094°60'7 5.8
2018-Feb-16 09:46N 29°44' W 095°02'3 7.7
2018-Feb-16 09:20N 29°46' W 095°05'1 2.1
2018-Feb-16 08:38N 29°47' W 095°05'0 0.1
2018-Feb-16 08:20N 29°47' W 095°05'0 0.1
2018-Feb-16 07:41N 29°47' W 095°05'0 0.0
2018-Feb-16 05:53N 29°47' W 095°05'0 0.0
2018-Feb-16 05:29N 29°47' W 095°05'0 0.0
2018-Feb-16 04:55N 29°47' W 095°05'0 0.0
2018-Feb-16 04:30N 29°47' W 095°05'0 0.0
2018-Feb-16 03:58N 29°47' W 095°05'0 0.0
2018-Feb-16 03:26N 29°47' W 095°05'0 0.2
2018-Feb-16 02:58N 29°47' W 095°05'0 0.2
2018-Feb-16 02:29N 29°47' W 095°05'0 0.0
2018-Feb-16 01:56N 29°47' W 095°05'0 0.0
2018-Feb-16 01:18N 29°47' W 095°05'0 0.1
2018-Feb-15 23:56N 29°47' W 095°05'0 0.0
2018-Feb-15 19:34N 29°47' W 095°05'0 0.0
2018-Feb-15 17:19N 29°47' W 095°05'0 0.0
2018-Feb-15 16:55N 29°47' W 095°05'0 0.0
2018-Feb-15 16:30N 29°47' W 095°05'0 0.0
2018-Feb-15 15:51N 29°47' W 095°05'0 0.0
2018-Feb-15 15:09N 29°47' W 095°05'0 0.0
2018-Feb-15 14:58N 29°47' W 095°05'0 0.0
2018-Feb-15 14:28N 29°47' W 095°05'0 0.0
2018-Feb-15 13:53N 29°47' W 095°05'0 0.0
2018-Feb-15 13:29N 29°47' W 095°05'0 0.0
2018-Feb-15 12:56N 29°47' W 095°05'0 0.0
2018-Feb-15 12:29N 29°47' W 095°05'0 0.0
2018-Feb-15 09:24N 29°47' W 095°05'0 0.0
2018-Feb-15 08:52N 29°47' W 095°05'0 0.0
2018-Feb-15 08:29N 29°47' W 095°05'0 0.0
2018-Feb-15 08:00N 29°47' W 095°05'0 0.0
2018-Feb-15 07:30N 29°47' W 095°05'0 0.0
2018-Feb-15 07:00N 29°47' W 095°05'0 0.0
2018-Feb-15 06:30N 29°47' W 095°05'0 0.0
2018-Feb-15 05:56N 29°47' W 095°05'0 0.0
2018-Feb-15 05:30N 29°47' W 095°05'0 0.0
2018-Feb-15 04:58N 29°47' W 095°05'0 0.0
2018-Feb-15 04:25N 29°47' W 095°05'0 0.0
2018-Feb-15 04:00N 29°47' W 095°05'0 0.0
2018-Feb-15 03:17N 29°47' W 095°05'2 0.8
2018-Feb-15 01:22N 29°46' W 095°05'2 0.4
2018-Feb-14 21:25N 29°47' W 095°05'0 0.0
2018-Feb-14 20:57N 29°47' W 095°05'0 0.0
2018-Feb-14 20:28N 29°47' W 095°05'0 0.1
2018-Feb-14 18:26N 29°47' W 095°05'0 0.1
2018-Feb-14 17:52N 29°47' W 095°05'0 0.1
2018-Feb-14 17:27N 29°47' W 095°05'0 0.1
2018-Feb-14 15:46N 29°47' W 095°05'0 0.0
2018-Feb-14 15:30N 29°47' W 095°05'0 0.0
2018-Feb-14 14:59N 29°47' W 095°05'0 0.0
2018-Feb-14 14:30N 29°47' W 095°05'0 0.0
2018-Feb-14 14:00N 29°47' W 095°05'  
Track history (hours):
 
Tides and Currents Weather Stations Pressure Air Temp Water Temp Dewpoint Dewpoint Depression Visibility Wind Speed Wind Dir Waves Ship Positions

Charles W Clark

Owner: BLESSEY ENTERPRISES INC, HARAHAN, LA. More information available from US FCC via Universal Licensing System and Coast Guard Vessel Documentation Center.

Last reported at 2018-Feb-22 18:33 UTC. Time now 2018-Feb-23 08:35 UTC.
Position N 29°43' W 095°01'.

Length 20 m.

Type: Towing. MMSI: 366933680.

Date/timePositionNaut miles runAvg speedWind from/ knotsBaromVisibWave heightAir tempDewpointWater temp
2018-Feb-22 18:33N 29°43' W 095°01'0 7.6
2018-Feb-22 18:30N 29°43' W 095°01'1 2.0
2018-Feb-22 17:58N 29°42' W 095°02'0 0.3
2018-Feb-22 17:30N 29°42' W 095°02'0 0.0
2018-Feb-22 16:56N 29°42' W 095°02'0 0.0
2018-Feb-22 16:27N 29°42' W 095°02'0 0.0
2018-Feb-22 15:45N 29°42' W 095°02'0 0.0
2018-Feb-22 15:29N 29°42' W 095°02'0 0.0
2018-Feb-22 15:00N 29°42' W 095°02'0 0.0
2018-Feb-22 14:25N 29°42' W 095°02'0 0.0
2018-Feb-22 13:55N 29°42' W 095°02'0 0.6
2018-Feb-22 13:30N 29°43' W 095°03'1 2.4
2018-Feb-22 13:00N 29°43' W 095°01'1 0.1
2018-Feb-22 01:25N 29°44' W 095°02'3 6.8
2018-Feb-22 00:59N 29°42' W 094°59'3 6.8
2018-Feb-22 00:29N 29°38' W 094°58'2 5.0
2018-Feb-22 00:00N 29°37' W 094°60'1 2.5
2018-Feb-21 23:29N 29°37' W 095°01'0 0.0
2018-Feb-21 23:00N 29°37' W 095°01'0 0.0
2018-Feb-21 22:27N 29°37' W 095°01'0 0.0
2018-Feb-21 22:01N 29°37' W 095°01'0 0.0
2018-Feb-21 14:35N 29°37' W 095°01'0 0.0
2018-Feb-21 14:30N 29°37' W 095°01'0 0.0
2018-Feb-21 13:57N 29°37' W 095°01'1 3.2
2018-Feb-21 13:30N 29°37' W 094°60'2 4.9
2018-Feb-21 13:00N 29°39' W 094°58'4 7.5
2018-Feb-21 12:26N 29°42' W 095°01'1 2.9
2018-Feb-21 12:00N 29°42' W 095°02'0 0.0
2018-Feb-21 11:29N 29°42' W 095°02'0 0.0
2018-Feb-21 11:00N 29°42' W 095°02'0 0.0
2018-Feb-21 10:24N 29°42' W 095°02'0 0.0
2018-Feb-21 10:01N 29°42' W 095°02'0 0.0
2018-Feb-21 09:30N 29°42' W 095°02'0 0.0
2018-Feb-21 09:00N 29°42' W 095°02'0 0.0
2018-Feb-21 08:31N 29°42' W 095°02'0 0.0
2018-Feb-21 07:59N 29°42' W 095°02'0 0.0
2018-Feb-21 07:29N 29°42' W 095°02'0 0.0
2018-Feb-21 07:01N 29°42' W 095°02'0 0.0
2018-Feb-21 06:30N 29°42' W 095°02'0 0.0
2018-Feb-21 06:00N 29°42' W 095°02'0 0.0
2018-Feb-21 05:29N 29°42' W 095°02'0 0.0
2018-Feb-21 04:59N 29°42' W 095°02'0 0.0
2018-Feb-21 04:30N 29°42' W 095°02'0 0.0
2018-Feb-21 04:00N 29°42' W 095°02'0 0.0
2018-Feb-21 03:26N 29°42' W 095°02'0 0.0
2018-Feb-21 02:59N 29°42' W 095°02'0 0.0
2018-Feb-21 02:29N 29°42' W 095°02'0 0.0
2018-Feb-21 02:00N 29°42' W 095°02'0 0.0
2018-Feb-21 01:30N 29°42' W 095°02'0 0.0
2018-Feb-21 01:00N 29°42' W 095°02'0 0.0
2018-Feb-21 00:28N 29°42' W 095°02'0 0.0
2018-Feb-21 00:01N 29°42' W 095°02'0 0.0
2018-Feb-20 23:31N 29°42' W 095°02'0 0.0
2018-Feb-20 23:00N 29°42' W 095°02'0 0.0
2018-Feb-20 22:31N 29°42' W 095°02'0 0.0
2018-Feb-20 22:00N 29°42' W 095°02'0 0.0
2018-Feb-20 21:30N 29°42' W 095°02'0 0.0
2018-Feb-20 21:00N 29°42' W 095°02'1 1.3
2018-Feb-20 20:20N 29°42' W 095°01'6 0.9
2018-Feb-20 14:04N 29°47' W 095°05'0 0.0
2018-Feb-20 14:00N 29°47' W 095°05'0 0.0
2018-Feb-20 13:31N 29°47' W 095°05'0 0.0
2018-Feb-20 08:17N 29°47' W 095°05'1 2.0
2018-Feb-20 07:52N 29°46' W 095°05'2 6.0
2018-Feb-20 07:30N 29°45' W 095°06'6 0.4
2018-Feb-19 15:34N 29°43' W 095°13'0 0.1
2018-Feb-19 12:46N 29°43' W 095°13'1 0.1
2018-Feb-19 08:38N 29°43' W 095°13'0 0.0
2018-Feb-19 08:30N 29°43' W 095°13'9 0.5
2018-Feb-18 16:32N 29°47' W 095°05'0 0.1
2018-Feb-18 16:28N 29°47' W 095°05'0 0.0
2018-Feb-18 10:58N 29°47' W 095°05'1 0.1
2018-Feb-17 20:14N 29°46' W 095°05'1 0.4
2018-Feb-17 17:43N 29°45' W 095°06'2 0.2
2018-Feb-17 06:29N 29°47' W 095°05'0 0.2
2018-Feb-17 05:57N 29°47' W 095°05'5 0.9
2018-Feb-17 00:21N 29°43' W 095°01'3 7.7
2018-Feb-17 00:00N 29°41' W 094°59'4 8.4
2018-Feb-16 23:30N 29°37' W 094°57'4 7.0
2018-Feb-16 23:00N 29°37' W 095°01'0 0.1
2018-Feb-16 22:30N 29°37' W 095°01'0 0.0
2018-Feb-16 22:00N 29°37' W 095°01'0 0.0
2018-Feb-16 21:30N 29°37' W 095°01'0 0.0
2018-Feb-16 21:00N 29°37' W 095°01'0 0.0
2018-Feb-16 20:29N 29°37' W 095°01'0 0.0
2018-Feb-16 20:00N 29°37' W 095°01'0 0.0
2018-Feb-16 19:30N 29°37' W 095°01'0 0.0
2018-Feb-16 19:00N 29°37' W 095°01'0 0.0
2018-Feb-16 18:30N 29°37' W 095°01'0 0.0
2018-Feb-16 18:00N 29°37' W 095°01'0 0.0
2018-Feb-16 17:30N 29°37' W 095°01'0 0.0
2018-Feb-16 17:00N 29°37' W 095°01'0 0.0
2018-Feb-16 16:30N 29°37' W 095°01'0 0.0
2018-Feb-16 16:00N 29°37' W 095°01'0 0.0
2018-Feb-16 15:30N 29°37' W 095°01'0 0.0
2018-Feb-16 15:00N 29°37' W 095°01'0 0.0
2018-Feb-16 14:30N 29°37' W 095°01'0 0.0
2018-Feb-16 14:00N 29°37' W 095°01'0 0.0
2018-Feb-16 13:30N 29°37' W 095°01'0 0.0
2018-Feb-16 13:00N 29°37' W 095°01'0 0.0
2018-Feb-16 12:26N 29°37' W 095°01'0 0.0
2018-Feb-16 12:00N 29°37' W 095°01'0 0.0
2018-Feb-16 11:28N 29°37' W 095°01'2 3.7
2018-Feb-16 11:00N 29°37' W 094°60'7 5.8
2018-Feb-16 09:46N 29°44' W 095°02'3 7.7
2018-Feb-16 09:20N 29°46' W 095°05'1 2.1
2018-Feb-16 08:38N 29°47' W 095°05'0 0.1
2018-Feb-16 08:20N 29°47' W 095°05'0 0.1
2018-Feb-16 07:41N 29°47' W 095°05'0 0.0
2018-Feb-16 05:53N 29°47' W 095°05'0 0.0
2018-Feb-16 05:29N 29°47' W 095°05'0 0.0
2018-Feb-16 04:55N 29°47' W 095°05'0 0.0
2018-Feb-16 04:30N 29°47' W 095°05'0 0.0
2018-Feb-16 03:58N 29°47' W 095°05'0 0.0
2018-Feb-16 03:26N 29°47' W 095°05'0 0.2
2018-Feb-16 02:58N 29°47' W 095°05'0 0.2
2018-Feb-16 02:29N 29°47' W 095°05'0 0.0
2018-Feb-16 01:56N 29°47' W 095°05'0 0.0
2018-Feb-16 01:18N 29°47' W 095°05'0 0.1
2018-Feb-15 23:56N 29°47' W 095°05'0 0.0
2018-Feb-15 19:34N 29°47' W 095°05'0 0.0
2018-Feb-15 17:19N 29°47' W 095°05'0 0.0
2018-Feb-15 16:55N 29°47' W 095°05'0 0.0
2018-Feb-15 16:30N 29°47' W 095°05'0 0.0
2018-Feb-15 15:51N 29°47' W 095°05'0 0.0
2018-Feb-15 15:09N 29°47' W 095°05'0 0.0
2018-Feb-15 14:58N 29°47' W 095°05'0 0.0
2018-Feb-15 14:28N 29°47' W 095°05'0 0.0
2018-Feb-15 13:53N 29°47' W 095°05'0 0.0
2018-Feb-15 13:29N 29°47' W 095°05'0 0.0
2018-Feb-15 12:56N 29°47' W 095°05'0 0.0
2018-Feb-15 12:29N 29°47' W 095°05'0 0.0
2018-Feb-15 09:24N 29°47' W 095°05'0 0.0
2018-Feb-15 08:52N 29°47' W 095°05'0 0.0
2018-Feb-15 08:29N 29°47' W 095°05'0 0.0
2018-Feb-15 08:00N 29°47' W 095°05'0 0.0
2018-Feb-15 07:30N 29°47' W 095°05'0 0.0
2018-Feb-15 07:00N 29°47' W 095°05'0 0.0
2018-Feb-15 06:30N 29°47' W 095°05'0 0.0
2018-Feb-15 05:56N 29°47' W 095°05'0 0.0
2018-Feb-15 05:30N 29°47' W 095°05'0 0.0
2018-Feb-15 04:58N 29°47' W 095°05'0 0.0
2018-Feb-15 04:25N 29°47' W 095°05'0 0.0
2018-Feb-15 04:00N 29°47' W 095°05'0 0.0
2018-Feb-15 03:17N 29°47' W 095°05'2 0.8
2018-Feb-15 01:22N 29°46' W 095°05'2 0.4
2018-Feb-14 21:25N 29°47' W 095°05'0 0.0
2018-Feb-14 20:57N 29°47' W 095°05'0 0.0
2018-Feb-14 20:28N 29°47' W 095°05'0 0.1
2018-Feb-14 18:26N 29°47' W 095°05'0 0.1
2018-Feb-14 17:52N 29°47' W 095°05'0 0.1
2018-Feb-14 17:27N 29°47' W 095°05'0 0.1
2018-Feb-14 15:46N 29°47' W 095°05'0 0.0
2018-Feb-14 15:30N 29°47' W 095°05'0 0.0
2018-Feb-14 14:59N 29°47' W 095°05'0 0.0
2018-Feb-14 14:30N 29°47' W 095°05'0 0.0
2018-Feb-14 14:00N 29°47' W 095°05'  

Dump ship's entire track history